Time;durP1;ratioP1;P1;durP2;ratioP2;P2;SDS_P1;SDS_P2;PMS_P1;PMS_P2;Temp;Humidity;BMP_temperature;BMP_pressure;BME280_temperature;BME280_humidity;BME280_pressure;Samples;Min_cycle;Max_cycle;Signal;HPM_P1;HPM_P2
2022/04/01 00:02:18;;;;;;;17.52;12.02;;;;;;;0.49;95.27;100245.28;5021287;28;20667;-65
2022/04/01 00:04:43;;;;;;;16.90;11.65;;;;;;;0.49;94.99;100245.28;5021540;28;20052;-66
2022/04/01 00:07:09;;;;;;;16.60;13.48;;;;;;;0.80;93.88;100241.66;5023330;28;20108;-66
2022/04/01 00:09:34;;;;;;;16.10;12.27;;;;;;;0.41;94.66;100245.34;5024984;28;20089;-65
2022/04/01 00:11:59;;;;;;;17.35;12.55;;;;;;;0.37;94.85;100245.88;5024558;28;20071;-65
2022/04/01 00:14:25;;;;;;;19.02;15.52;;;;;;;0.66;93.76;100242.44;5023387;28;20400;-65
2022/04/01 00:16:51;;;;;;;18.77;11.57;;;;;;;0.38;93.41;100253.78;5023839;28;20024;-65
2022/04/01 00:19:17;;;;;;;16.80;13.57;;;;;;;0.69;93.32;100266.41;5020499;28;20025;-65
2022/04/01 00:21:42;;;;;;;18.45;13.02;;;;;;;0.56;93.62;100267.03;5024124;28;20025;-65
2022/04/01 00:24:07;;;;;;;15.75;11.35;;;;;;;0.48;94.67;100254.41;5025028;28;20026;-65
2022/04/01 00:26:33;;;;;;;11.55;8.18;;;;;;;0.42;95.04;100265.94;5021801;28;20026;-65
2022/04/01 00:28:58;;;;;;;16.48;11.77;;;;;;;0.43;95.08;100250.56;5023665;28;20095;-65
2022/04/01 00:31:23;;;;;;;14.07;11.05;;;;;;;0.38;95.09;100261.91;5023791;28;20040;-65
2022/04/01 00:34:15;;;;;;;20.52;12.30;;;;;;;0.38;95.51;100264.59;5021065;28;20034;-66
2022/04/01 00:36:34;;;;;;;15.60;12.55;;;;;;;0.51;94.77;100259.47;5023553;28;20042;-65
2022/04/01 00:38:59;;;;;;;16.52;11.80;;;;;;;0.20;96.29;100262.19;5024419;28;20540;-65
2022/04/01 00:41:25;;;;;;;15.93;10.88;;;;;;;0.28;96.08;100266.69;5023774;28;20044;-65
2022/04/01 00:44:18;;;;;;;19.23;13.60;;;;;;;0.64;95.24;100263.41;5021817;28;20420;-65
2022/04/01 00:46:49;;;;;;;16.20;12.00;;;;;;;0.37;96.49;100254.81;5023662;28;20064;-64
2022/04/01 00:49:18;;;;;;;16.08;10.15;;;;;;;0.13;96.66;100271.16;5022245;28;20036;-65
2022/04/01 00:51:47;;;;;;;13.73;9.48;;;;;;;0.17;96.49;100264.41;5023170;28;20068;-64
2022/04/01 00:54:13;;;;;;;16.05;11.13;;;;;;;0.18;97.85;100257.97;5022108;28;20021;-65
2022/04/01 00:56:39;;;;;;;20.25;12.13;;;;;;;-0.02;97.65;100261.13;5023846;28;20027;-67
2022/04/01 00:59:06;;;;;;;16.63;11.45;;;;;;;-0.08;97.56;100269.09;5024161;28;20413;-64
2022/04/01 01:01:34;;;;;;;16.73;11.63;;;;;;;-0.19;98.30;100264.91;5022856;28;20036;-64
2022/04/01 01:04:04;;;;;;;13.75;10.40;;;;;;;0.38;95.93;100269.16;5022304;28;20395;-65
2022/04/01 01:06:31;;;;;;;12.18;8.52;;;;;;;0.16;96.29;100271.66;5022845;28;20045;-65
2022/04/01 01:08:58;;;;;;;12.60;7.82;;;;;;;0.05;97.10;100287.41;5023291;28;20044;-65
2022/04/01 01:11:23;;;;;;;11.15;7.75;;;;;;;0.23;96.81;100279.88;5023087;28;20411;-65
2022/04/01 01:13:48;;;;;;;14.20;10.27;;;;;;;0.19;96.44;100281.25;5021042;28;20032;-65
2022/04/01 01:16:14;;;;;;;14.20;10.93;;;;;;;0.54;95.37;100279.84;5023238;28;20455;-65
2022/04/01 01:18:39;;;;;;;14.77;9.00;;;;;;;0.07;95.67;100288.09;5020901;28;20467;-65
2022/04/01 01:21:09;;;;;;;16.23;11.57;;;;;;;0.47;94.38;100285.16;5022909;28;20570;-65
2022/04/01 01:23:35;;;;;;;16.35;11.48;;;;;;;0.17;95.47;100288.72;5022331;28;20025;-65
2022/04/01 01:26:01;;;;;;;16.80;11.43;;;;;;;0.42;95.15;100267.78;5022428;28;20064;-64
2022/04/01 01:28:27;;;;;;;15.45;11.30;;;;;;;0.01;96.13;100278.84;5021010;28;20084;-65
2022/04/01 01:30:52;;;;;;;14.25;11.40;;;;;;;0.38;94.80;100280.81;5020811;28;20473;-65
2022/04/01 01:33:24;;;;;;;16.08;14.38;;;;;;;0.47;94.86;100279.75;5019288;28;20079;-64
2022/04/01 01:35:49;;;;;;;13.18;9.90;;;;;;;0.21;95.93;100276.53;5022873;28;20483;-65
2022/04/01 01:38:18;;;;;;;15.63;10.77;;;;;;;0.40;95.46;100278.75;5021938;28;20033;-64
2022/04/01 01:40:43;;;;;;;14.18;10.82;;;;;;;0.03;95.80;100290.28;5004579;28;20029;-65
2022/04/01 01:43:08;;;;;;;14.10;10.55;;;;;;;0.14;96.02;100289.88;5020195;28;20034;-66
2022/04/01 01:45:34;;;;;;;15.05;11.80;;;;;;;0.38;95.72;100291.63;5023692;28;20484;-65
2022/04/01 01:47:59;;;;;;;12.30;8.65;;;;;;;0.07;95.98;100294.31;5022925;28;20120;-65
2022/04/01 01:55:52;;;;;;;13.90;11.02;;;;;;;0.05;95.55;100300.91;5006886;28;20501;-65
2022/04/01 01:58:18;;;;;;;11.70;9.45;;;;;;;0.27;95.81;100291.19;5022824;28;20033;-64
2022/04/01 02:00:44;;;;;;;9.45;6.70;;;;;;;0.23;95.66;100296.94;5022638;28;20034;-65
2022/04/01 02:03:12;;;;;;;12.85;9.88;;;;;;;0.29;95.28;100308.03;5021282;28;20083;-66
2022/04/01 02:05:37;;;;;;;13.38;8.88;;;;;;;0.17;96.11;100299.50;5022684;28;20018;-65
2022/04/01 02:08:05;;;;;;;12.93;9.55;;;;;;;0.11;95.32;100311.84;5021956;28;20524;-65
2022/04/01 02:10:33;;;;;;;14.13;9.70;;;;;;;0.21;94.47;100314.34;5022132;28;20041;-64
2022/04/01 02:12:58;;;;;;;12.48;10.40;;;;;;;0.37;94.14;100308.84;5020871;28;20037;-64
2022/04/01 02:15:24;;;;;;;13.18;10.23;;;;;;;0.28;95.09;100309.06;5021549;28;20025;-64
2022/04/01 02:17:50;;;;;;;11.77;10.15;;;;;;;0.35;96.04;100296.53;5022850;28;20479;-64
2022/04/01 02:20:16;;;;;;;12.07;10.77;;;;;;;0.45;94.54;100308.78;5019925;28;20107;-65
2022/04/01 02:22:41;;;;;;;14.15;12.70;;;;;;;0.47;93.95;100316.72;5020506;28;20167;-65
2022/04/01 02:25:07;;;;;;;13.75;12.35;;;;;;;0.44;94.83;100317.91;5025477;28;20030;-65
2022/04/01 02:27:33;;;;;;;12.88;11.55;;;;;;;0.45;94.19;100325.00;5026135;28;20047;-65
2022/04/01 02:29:58;;;;;;;13.00;9.73;;;;;;;0.21;94.64;100330.53;5025845;28;20045;-65
2022/04/01 02:32:25;;;;;;;12.55;11.25;;;;;;;0.43;94.80;100316.22;5025799;28;20113;-65
2022/04/01 02:34:50;;;;;;;14.25;10.98;;;;;;;-0.03;95.63;100331.47;5025477;28;20026;-64
2022/04/01 02:37:17;;;;;;;14.73;12.95;;;;;;;0.44;94.71;100327.88;5025964;28;20465;-65
2022/04/01 02:39:43;;;;;;;12.65;9.75;;;;;;;0.25;93.97;100330.03;5024815;28;20022;-65
2022/04/01 02:42:08;;;;;;;13.05;8.95;;;;;;;-0.01;96.00;100330.28;5024838;28;20039;-66
2022/04/01 02:44:34;;;;;;;13.30;8.90;;;;;;;0.28;94.10;100336.91;5026837;28;20018;-65
2022/04/01 02:46:59;;;;;;;14.95;10.43;;;;;;;0.04;96.26;100335.16;5025950;28;20030;-65
2022/04/01 02:49:24;;;;;;;13.32;10.93;;;;;;;0.38;94.44;100334.00;5024019;28;20021;-65
2022/04/01 02:51:50;;;;;;;17.00;13.98;;;;;;;0.35;95.41;100345.97;5025565;28;20037;-64
2022/04/01 02:54:20;;;;;;;14.02;11.73;;;;;;;0.44;94.01;100330.56;5026257;28;20023;-65
2022/04/01 02:56:46;;;;;;;13.73;10.48;;;;;;;0.19;95.15;100338.81;5026455;28;20033;-65
2022/04/01 02:59:11;;;;;;;16.70;11.73;;;;;;;0.07;94.71;100342.09;5022348;28;20052;-64
2022/04/01 03:01:39;;;;;;;16.10;14.32;;;;;;;0.50;93.88;100344.19;5024196;28;20060;-64
2022/04/01 03:04:09;;;;;;;15.52;11.82;;;;;;;0.29;92.87;100357.50;5025735;28;20025;-64
2022/04/01 03:06:39;;;;;;;13.73;10.18;;;;;;;0.36;94.27;100357.66;5023673;28;20410;-64
2022/04/01 03:09:08;;;;;;;13.98;11.00;;;;;;;0.18;94.00;100361.44;5015603;28;20046;-65
2022/04/01 03:11:35;;;;;;;14.27;11.13;;;;;;;0.09;94.17;100365.16;5021212;28;20046;-64
2022/04/01 03:14:02;;;;;;;13.48;10.20;;;;;;;0.33;93.40;100361.53;5023536;28;20040;-64
2022/04/01 03:16:27;;;;;;;14.18;11.35;;;;;;;0.50;93.38;100365.81;5023712;28;20500;-64
2022/04/01 03:18:57;;;;;;;11.43;9.57;;;;;;;0.33;92.93;100369.63;5024641;28;20034;-64
2022/04/01 03:21:24;;;;;;;15.02;12.90;;;;;;;0.50;92.54;100376.63;5024157;28;20117;-64
2022/04/01 03:23:50;;;;;;;15.23;12.00;;;;;;;0.38;92.51;100378.06;5026244;28;20082;-65
2022/04/01 03:26:16;;;;;;;12.98;10.57;;;;;;;0.33;93.41;100375.03;5024749;28;20574;-65
2022/04/01 03:28:41;;;;;;;16.45;13.90;;;;;;;0.48;92.70;100367.03;5025537;28;20025;-65
2022/04/01 03:31:09;;;;;;;13.60;9.75;;;;;;;0.13;93.68;100380.00;5025827;28;20017;-64
2022/04/01 03:33:36;;;;;;;14.82;13.23;;;;;;;0.29;93.95;100389.91;5024293;28;20111;-65
2022/04/01 03:36:02;;;;;;;12.88;9.27;;;;;;;0.10;94.53;100395.72;5023689;28;20028;-65
2022/04/01 03:38:27;;;;;;;13.63;11.93;;;;;;;0.22;94.39;100395.19;5023714;28;20021;-65
2022/04/01 03:40:53;;;;;;;13.40;10.77;;;;;;;-0.01;94.38;100394.22;5025297;28;20037;-65
2022/04/01 03:43:21;;;;;;;13.27;9.73;;;;;;;0.10;96.16;100387.63;5025420;28;20030;-65
2022/04/01 03:45:50;;;;;;;14.48;10.43;;;;;;;-0.14;95.73;100405.59;5022460;28;20033;-65
2022/04/01 03:48:47;;;;;;;13.43;11.27;;;;;;;0.13;95.01;100406.19;5023591;28;20124;-65
2022/04/01 03:51:22;;;;;;;14.13;11.93;;;;;;;-0.07;96.40;100401.16;5024379;28;20044;-65
2022/04/01 03:54:03;;;;;;;13.07;10.75;;;;;;;0.12;96.11;100404.50;5023719;28;20029;-65
2022/04/01 03:56:34;;;;;;;14.90;13.50;;;;;;;0.28;95.66;100403.59;5023768;28;20033;-65
2022/04/01 03:59:07;;;;;;;11.50;10.30;;;;;;;0.13;96.77;100408.88;5023996;28;20129;-64
2022/04/01 04:01:35;;;;;;;13.18;11.55;;;;;;;0.25;95.01;100416.44;5023554;28;20106;-65
2022/04/01 04:04:01;;;;;;;14.97;13.43;;;;;;;0.20;95.93;100420.66;5021810;28;20029;-64
2022/04/01 04:06:27;;;;;;;12.93;10.38;;;;;;;0.16;95.50;100419.34;5024100;28;20322;-65
2022/04/01 04:08:57;;;;;;;10.05;8.23;;;;;;;-0.09;95.73;100424.81;5023444;28;20516;-65
2022/04/01 04:11:28;;;;;;;15.18;11.77;;;;;;;-0.31;97.06;100439.81;5024298;28;20079;-65
2022/04/01 04:13:55;;;;;;;13.93;11.85;;;;;;;-0.06;97.88;100426.31;5023861;28;20030;-65
2022/04/01 04:16:42;;;;;;;14.90;13.40;;;;;;;0.16;97.11;100433.69;5023429;28;20068;-65
2022/04/01 04:19:10;;;;;;;15.67;12.00;;;;;;;-0.32;97.81;100445.41;5021127;28;20048;-65
2022/04/01 04:21:43;;;;;;;12.30;9.82;;;;;;;-0.19;97.45;100442.19;5024501;28;20091;-65
2022/04/01 04:24:18;;;;;;;14.15;11.15;;;;;;;0.09;95.57;100453.44;5022636;28;20095;-65
2022/04/01 04:26:49;;;;;;;13.27;10.57;;;;;;;-0.14;96.22;100451.47;5024498;28;20029;-65
2022/04/01 04:29:16;;;;;;;11.93;9.93;;;;;;;-0.10;96.34;100457.34;5023610;28;20045;-65
2022/04/01 04:31:49;;;;;;;15.52;12.32;;;;;;;-0.04;96.02;100462.91;5023861;28;20507;-65
2022/04/01 04:34:20;;;;;;;13.98;8.82;;;;;;;-0.12;96.39;100465.63;5022188;28;20064;-65
2022/04/01 04:36:51;;;;;;;13.95;11.90;;;;;;;0.05;96.78;100468.28;5023594;28;20048;-65
2022/04/01 04:39:29;;;;;;;12.20;9.50;;;;;;;0.04;96.14;100480.09;5023533;28;20068;-65
2022/04/01 04:41:55;;;;;;;;;;;;;;;-0.08;95.57;100485.88;5022985;28;20183;-65
2022/04/01 04:44:24;;;;;;;11.88;9.77;;;;;;;0.14;94.68;100473.50;5023376;28;19952;-64
2022/04/01 04:46:50;;;;;;;13.68;11.77;;;;;;;0.15;94.24;100475.22;5023409;28;20064;-65
2022/04/01 04:49:17;;;;;;;12.60;10.57;;;;;;;0.12;93.53;100488.19;5022950;28;20021;-64
2022/04/01 04:51:46;;;;;;;11.15;8.77;;;;;;;0.11;94.27;100491.94;5022345;28;20045;-64
2022/04/01 04:54:14;;;;;;;15.82;11.90;;;;;;;0.13;94.28;100497.97;5023631;28;20053;-64
2022/04/01 04:56:39;;;;;;;12.77;9.15;;;;;;;0.08;93.64;100484.16;5023907;28;20484;-65
2022/04/01 04:59:06;;;;;;;14.05;10.85;;;;;;;-0.30;95.16;100510.84;5022969;28;20060;-64
2022/04/01 05:01:41;;;;;;;11.50;10.23;;;;;;;0.13;93.58;100500.69;5022124;28;20030;-64
2022/04/01 05:04:21;;;;;;;15.23;11.63;;;;;;;0.31;92.83;100506.72;5022866;28;20091;-64
2022/04/01 05:06:56;;;;;;;14.48;11.23;;;;;;;0.02;92.85;100528.03;5023294;28;20021;-65
2022/04/01 05:10:12;;;;;;;11.60;10.40;;;;;;;0.24;92.44;100532.72;5020825;28;20488;-64
2022/04/01 05:12:51;;;;;;;14.38;10.35;;;;;;;-0.21;93.50;100528.72;5015323;28;20049;-64
2022/04/01 05:15:36;;;;;;;12.88;9.45;;;;;;;-0.05;93.62;100539.53;5017696;28;20460;-64
2022/04/01 05:18:02;;;;;;;13.55;11.02;;;;;;;0.16;92.44;100532.75;5022344;28;20038;-64
2022/04/01 05:20:29;;;;;;;11.75;8.88;;;;;;;0.12;91.46;100545.75;5022887;28;20033;-64
2022/04/01 05:23:17;;;;;;;13.80;10.88;;;;;;;-0.07;92.77;100552.31;5022770;28;20617;-64
2022/04/01 05:25:52;;;;;;;13.68;10.73;;;;;;;0.17;91.62;100542.53;5022669;28;20029;-64
2022/04/01 05:28:22;;;;;;;13.25;11.85;;;;;;;0.28;91.35;100550.28;5022974;28;20030;-64
2022/04/01 05:31:08;;;;;;;12.35;9.98;;;;;;;0.12;91.41;100556.56;5022139;28;20037;-64
2022/04/01 05:33:41;;;;;;;14.30;12.77;;;;;;;0.43;89.74;100548.56;5020512;28;20044;-64
2022/04/01 05:36:10;;;;;;;14.27;9.60;;;;;;;0.03;90.58;100568.38;5022888;28;20434;-64
2022/04/01 05:38:35;;;;;;;10.27;8.90;;;;;;;0.21;91.58;100560.94;5022533;28;20024;-64
2022/04/01 05:41:02;;;;;;;11.95;9.00;;;;;;;0.13;91.31;100565.50;5022936;28;20037;-64
2022/04/01 05:43:28;;;;;;;14.32;12.77;;;;;;;0.39;90.04;100571.53;5020644;28;20152;-64
2022/04/01 05:45:56;;;;;;;11.68;8.32;;;;;;;-0.13;91.99;100581.88;5022054;28;20048;-64
2022/04/01 05:48:22;;;;;;;10.98;8.07;;;;;;;0.19;90.51;100576.44;5021389;28;20112;-64
2022/04/01 05:50:49;;;;;;;11.30;8.93;;;;;;;0.03;91.31;100581.03;5022336;28;20113;-65
2022/04/01 05:53:21;;;;;;;14.57;10.52;;;;;;;-0.12;90.95;100600.56;5021805;28;20091;-64
2022/04/01 05:55:47;;;;;;;12.00;10.55;;;;;;;0.38;89.81;100598.72;5022055;28;20025;-64
2022/04/01 05:58:12;;;;;;;12.02;9.63;;;;;;;0.38;89.30;100599.56;5022083;28;20072;-64
2022/04/01 06:01:05;;;;;;;12.05;10.02;;;;;;;0.37;89.04;100603.28;5021585;28;20046;-64
2022/04/01 06:04:05;;;;;;;14.88;9.55;;;;;;;0.21;90.81;100587.94;5021826;28;20029;-64
2022/04/01 06:06:41;;;;;;;10.43;7.78;;;;;;;0.04;90.05;100612.41;5020373;28;20467;-64
2022/04/01 06:09:25;;;;;;;11.60;8.27;;;;;;;0.04;90.36;100626.75;5023314;28;20431;-64
2022/04/01 06:12:00;;;;;;;12.25;9.23;;;;;;;0.37;89.74;100627.59;5021854;28;20496;-64
2022/04/01 06:14:44;;;;;;;11.77;7.75;;;;;;;0.22;90.13;100622.03;5020282;28;20032;-64
2022/04/01 06:17:32;;;;;;;8.85;7.78;;;;;;;0.08;90.26;100638.91;5017471;28;20033;-65
2022/04/01 06:20:03;;;;;;;10.27;7.82;;;;;;;0.25;90.40;100628.94;5022510;28;20037;-64
2022/04/01 06:22:31;;;;;;;10.80;7.40;;;;;;;0.35;88.64;100644.97;5019921;28;20283;-65
2022/04/01 06:25:03;;;;;;;12.15;8.25;;;;;;;0.19;88.23;100653.91;5004654;28;20124;-64
2022/04/01 06:27:38;;;;;;;12.55;10.30;;;;;;;0.54;87.16;100647.31;5021989;28;20216;-64
2022/04/01 06:30:10;;;;;;;12.02;7.30;;;;;;;0.12;89.06;100659.16;5023187;28;20029;-64
2022/04/01 06:32:58;;;;;;;10.90;7.10;;;;;;;-0.05;89.05;100660.13;5020390;28;20041;-65
2022/04/01 06:35:44;;;;;;;11.68;7.55;;;;;;;-0.14;88.82;100670.09;5021197;28;20030;-64
2022/04/01 06:38:20;;;;;;;9.02;6.53;;;;;;;0.22;86.86;100673.34;5021749;28;20479;-66
2022/04/01 06:41:06;;;;;;;10.55;7.63;;;;;;;0.39;86.58;100665.25;5020923;28;20087;-64
2022/04/01 06:43:34;;;;;;;11.10;7.13;;;;;;;0.22;87.51;100676.03;5017431;28;20029;-64
2022/04/01 06:45:59;;;;;;;9.23;6.23;;;;;;;0.29;87.06;100687.00;5021904;28;20022;-64
2022/04/01 06:48:24;;;;;;;10.05;7.78;;;;;;;0.40;87.35;100689.38;5021133;28;20295;-65
2022/04/01 06:50:50;;;;;;;10.10;8.32;;;;;;;0.41;87.18;100693.78;5021324;28;20117;-64
2022/04/01 06:53:16;;;;;;;9.55;7.75;;;;;;;0.44;86.67;100706.94;5020554;28;20364;-64
2022/04/01 06:55:42;;;;;;;8.25;6.07;;;;;;;0.23;87.80;100695.78;5022162;28;20033;-65
2022/04/01 06:58:11;;;;;;;10.85;7.15;;;;;;;0.23;87.04;100703.91;5021013;28;20035;-64
2022/04/01 07:00:43;;;;;;;13.38;8.07;;;;;;;0.29;86.22;100703.22;5022309;28;20099;-64
2022/04/01 07:03:09;;;;;;;10.38;6.57;;;;;;;0.10;87.32;100714.31;5021713;28;20113;-66
2022/04/01 07:05:35;;;;;;;11.00;6.80;;;;;;;-0.08;88.60;100706.38;5017339;28;20400;-64
2022/04/01 07:08:02;;;;;;;11.10;6.07;;;;;;;0.12;87.45;100723.13;5015078;28;20030;-65
2022/04/01 07:10:27;;;;;;;10.80;6.95;;;;;;;0.33;86.72;100720.78;5020817;28;20040;-64
2022/04/01 07:12:53;;;;;;;12.30;8.70;;;;;;;0.54;86.07;100720.28;5024292;28;20022;-64
2022/04/01 07:15:18;;;;;;;9.63;6.93;;;;;;;0.59;85.27;100725.19;5023318;28;20030;-64
2022/04/01 07:17:44;;;;;;;8.75;6.47;;;;;;;0.45;85.70;100724.00;5021088;28;20025;-64
2022/04/01 07:20:13;;;;;;;9.93;7.00;;;;;;;0.21;86.29;100728.38;5024900;28;20036;-65
2022/04/01 07:22:40;;;;;;;8.98;6.20;;;;;;;0.28;86.73;100733.09;5022542;28;20022;-66
2022/04/01 07:25:07;;;;;;;9.93;7.22;;;;;;;0.48;86.96;100727.22;5019078;28;20096;-64
2022/04/01 07:27:33;;;;;;;10.77;6.97;;;;;;;0.29;85.59;100727.53;5021827;28;20033;-64
2022/04/01 07:29:58;;;;;;;9.27;6.57;;;;;;;0.41;85.57;100731.63;5020872;28;20135;-65
2022/04/01 07:32:29;;;;;;;11.25;7.25;;;;;;;0.19;86.43;100741.19;5021471;28;20310;-65
2022/04/01 07:34:56;;;;;;;11.00;7.30;;;;;;;0.60;84.96;100737.69;5023569;28;20025;-65
2022/04/01 07:37:23;;;;;;;8.57;6.00;;;;;;;0.50;84.61;100748.66;5023646;28;20026;-64
2022/04/01 07:39:50;;;;;;;8.40;5.32;;;;;;;0.31;86.57;100755.22;5024182;28;20036;-65
2022/04/01 07:42:16;;;;;;;10.48;6.63;;;;;;;0.19;87.66;100753.84;5022845;28;20087;-64
2022/04/01 07:44:41;;;;;;;10.18;5.03;;;;;;;0.52;85.91;100757.44;5022531;28;20053;-65
2022/04/01 07:47:10;;;;;;;11.43;6.63;;;;;;;0.36;86.31;100762.84;5022011;28;20038;-66
2022/04/01 07:49:40;;;;;;;7.72;6.47;;;;;;;0.52;86.06;100761.00;5017650;28;20473;-64
2022/04/01 07:52:08;;;;;;;7.85;5.88;;;;;;;0.69;86.25;100769.09;5023093;28;20111;-65
2022/04/01 07:54:34;;;;;;;11.05;6.70;;;;;;;0.61;84.32;100767.25;5022085;28;20079;-65
2022/04/01 07:57:00;;;;;;;9.30;6.45;;;;;;;0.67;84.66;100768.44;5022682;28;20033;-64
2022/04/01 07:59:25;;;;;;;11.02;5.88;;;;;;;0.47;85.48;100774.16;5020973;28;20099;-65
2022/04/01 08:01:51;;;;;;;11.52;6.47;;;;;;;0.64;84.39;100772.31;5019400;28;20026;-65
2022/04/01 08:04:17;;;;;;;13.43;7.20;;;;;;;0.56;86.11;100784.97;5023383;28;20037;-64
2022/04/01 08:06:42;;;;;;;10.48;6.85;;;;;;;0.71;85.45;100767.06;5019455;28;20721;-65
2022/04/01 08:09:08;;;;;;;9.05;5.75;;;;;;;0.58;84.26;100783.81;5022636;28;20030;-64
2022/04/01 08:11:33;;;;;;;9.68;7.72;;;;;;;0.84;84.99;100778.22;5023621;28;20036;-65
2022/04/01 08:13:59;;;;;;;10.30;6.97;;;;;;;0.70;84.11;100784.31;5023383;28;20033;-65
2022/04/01 08:16:24;;;;;;;8.40;6.05;;;;;;;0.66;85.82;100788.34;5021483;28;20021;-65
2022/04/01 08:18:50;;;;;;;9.68;6.60;;;;;;;0.93;83.84;100793.44;5021127;28;20037;-64
2022/04/01 08:21:18;;;;;;;10.43;5.88;;;;;;;0.59;85.61;100804.41;5021463;28;20025;-64
2022/04/01 08:23:44;;;;;;;;;;;;;;;0.89;83.64;100802.91;5023012;28;20390;-65
2022/04/01 08:26:11;;;;;;;9.23;6.07;;;;;;;0.59;83.89;100812.50;5022497;28;19939;-65
2022/04/01 08:28:37;;;;;;;9.95;6.05;;;;;;;0.53;84.26;100813.19;5022080;28;20080;-64
2022/04/01 08:31:03;;;;;;;8.68;6.25;;;;;;;0.82;83.02;100810.00;5022540;28;20025;-65
2022/04/01 08:33:29;;;;;;;10.10;5.88;;;;;;;0.45;85.33;100821.25;5021410;28;20041;-65
2022/04/01 08:35:56;;;;;;;8.27;4.95;;;;;;;0.37;84.42;100823.97;5023354;28;20026;-64
2022/04/01 08:38:21;;;;;;;9.93;5.93;;;;;;;0.49;84.78;100828.03;5018315;28;20037;-65
2022/04/01 08:40:46;;;;;;;10.55;6.05;;;;;;;0.76;83.26;100827.75;5024487;28;20514;-64
2022/04/01 08:43:12;;;;;;;8.82;5.45;;;;;;;0.85;82.74;100825.88;5024271;28;20025;-65
2022/04/01 08:45:38;;;;;;;8.52;5.90;;;;;;;1.06;80.84;100840.75;5024509;28;20040;-65
2022/04/01 08:48:06;;;;;;;8.27;5.10;;;;;;;0.63;83.10;100835.50;5021306;28;20037;-65
2022/04/01 08:50:32;;;;;;;8.57;6.43;;;;;;;1.02;81.45;100846.53;5021438;28;20099;-65
2022/04/01 08:52:57;;;;;;;9.65;5.97;;;;;;;0.80;82.71;100849.03;5020655;28;20060;-64
2022/04/01 08:55:23;;;;;;;8.65;5.65;;;;;;;0.49;85.50;100860.44;5020696;28;20057;-65
2022/04/01 08:57:48;;;;;;;9.18;5.78;;;;;;;0.80;85.53;100863.38;5017231;28;20018;-64
2022/04/01 09:00:14;;;;;;;10.85;4.85;;;;;;;1.06;83.33;100862.38;5022824;28;20522;-65
2022/04/01 09:02:43;;;;;;;9.40;5.50;;;;;;;0.85;82.84;100866.44;5020316;28;20044;-65
2022/04/01 09:05:10;;;;;;;10.18;5.30;;;;;;;0.94;83.83;100875.41;5021295;28;20630;-66
2022/04/01 09:07:35;;;;;;;8.27;4.85;;;;;;;1.01;84.48;100869.19;5022015;28;20030;-66
2022/04/01 09:10:01;;;;;;;7.53;4.95;;;;;;;0.85;85.60;100879.94;5021513;28;20021;-65
2022/04/01 09:12:28;;;;;;;9.20;5.28;;;;;;;0.96;84.41;100878.78;5022953;28;20053;-65
2022/04/01 09:14:55;;;;;;;8.05;5.60;;;;;;;1.42;83.89;100874.59;5021376;28;20029;-65
2022/04/01 09:17:21;;;;;;;11.00;4.57;;;;;;;1.00;84.79;100870.16;5021092;28;20037;-64
2022/04/01 09:19:47;;;;;;;11.10;5.07;;;;;;;0.99;84.75;100879.28;5020044;28;20047;-65
2022/04/01 09:22:25;;;;;;;6.90;4.03;;;;;;;1.21;83.28;100887.75;5021193;28;20033;-65
2022/04/01 09:24:58;;;;;;;9.30;5.00;;;;;;;0.99;86.23;100883.88;5022651;28;20032;-64
2022/04/01 09:27:37;;;;;;;6.03;3.85;;;;;;;1.14;84.09;100889.44;5021818;28;20040;-65
2022/04/01 09:30:04;;;;;;;10.23;5.55;;;;;;;1.16;84.59;100896.38;5020051;28;20025;-65
2022/04/01 09:32:42;;;;;;;7.35;4.50;;;;;;;1.10;85.95;100896.22;5020696;28;20350;-65
2022/04/01 09:35:10;;;;;;;7.32;3.90;;;;;;;1.20;82.77;100891.47;5021772;28;20029;-64
2022/04/01 09:37:38;;;;;;;6.18;3.65;;;;;;;1.70;82.42;100893.13;5018966;28;20527;-63
2022/04/01 09:40:04;;;;;;;5.32;3.13;;;;;;;1.46;80.87;100897.56;5013562;28;20638;-68
2022/04/01 09:42:29;;;;;;;8.70;4.03;;;;;;;1.04;83.52;100905.84;5021441;28;20128;-63
2022/04/01 09:44:58;;;;;;;7.00;3.97;;;;;;;0.99;85.14;100909.03;5022221;28;20648;-63
2022/04/01 09:47:23;;;;;;;7.63;3.92;;;;;;;1.08;84.81;100909.91;5022152;28;20018;-63
2022/04/01 09:49:52;;;;;;;6.70;3.97;;;;;;;1.06;85.66;100913.78;5021657;28;20035;-63
2022/04/01 09:52:20;;;;;;;8.05;4.00;;;;;;;1.04;85.27;100903.97;5021971;28;20027;-63
2022/04/01 09:54:55;;;;;;;8.63;4.03;;;;;;;1.03;84.72;100907.69;5021941;28;20029;-64
2022/04/01 09:57:23;;;;;;;9.45;4.57;;;;;;;1.06;85.99;100913.78;5021038;28;20026;-63
2022/04/01 09:59:50;;;;;;;6.63;3.87;;;;;;;1.20;84.99;100918.53;5022844;28;20067;-64
2022/04/01 10:02:16;;;;;;;6.63;3.72;;;;;;;1.13;85.71;100912.97;5018949;28;20377;-63
2022/04/01 10:04:41;;;;;;;7.00;3.95;;;;;;;1.26;84.54;100913.28;5023167;28;20032;-63
2022/04/01 10:07:07;;;;;;;9.05;3.65;;;;;;;1.17;85.25;100903.50;5018619;28;20044;-63
2022/04/01 10:09:33;;;;;;;8.30;4.05;;;;;;;1.23;85.47;100910.09;5020504;28;20472;-63
2022/04/01 10:12:02;;;;;;;4.53;3.42;;;;;;;2.06;80.49;100912.53;5021529;28;20385;-63
2022/04/01 10:14:30;;;;;;;8.57;4.30;;;;;;;1.39;82.65;100906.53;5042267;28;20476;-63
2022/04/01 10:16:59;;;;;;;8.00;3.90;;;;;;;1.38;83.43;100911.09;5042287;28;20112;-64
2022/04/01 10:19:29;;;;;;;7.25;3.67;;;;;;;1.48;83.90;100910.94;5028035;28;20411;-63
2022/04/01 10:21:55;;;;;;;9.55;4.40;;;;;;;1.60;82.59;100914.13;5020739;28;20420;-63
2022/04/01 10:24:25;;;;;;;7.93;3.78;;;;;;;1.75;80.68;100910.56;5022329;28;20029;-63
2022/04/01 10:27:09;;;;;;;8.68;4.25;;;;;;;2.21;80.07;100904.50;5023047;28;20030;-63
2022/04/01 10:29:35;;;;;;;5.38;3.65;;;;;;;2.32;77.51;100907.69;5022970;28;20029;-63
2022/04/01 10:32:24;;;;;;;8.48;4.47;;;;;;;2.38;76.66;100900.72;5015190;28;20038;-63
2022/04/01 10:34:50;;;;;;;7.85;4.78;;;;;;;2.33;75.61;100901.25;5020920;28;20021;-63
2022/04/01 10:37:17;;;;;;;8.05;4.85;;;;;;;1.67;79.58;100915.97;5022052;28;20047;-63
2022/04/01 10:39:51;;;;;;;10.40;5.95;;;;;;;1.64;80.05;100915.50;5022221;28;20075;-63
2022/04/01 10:42:17;;;;;;;9.65;5.88;;;;;;;1.68;80.25;100914.97;5022147;28;20029;-63
2022/04/01 10:44:55;;;;;;;8.50;5.22;;;;;;;2.41;75.97;100915.78;5022949;28;20044;-63
2022/04/01 10:47:23;;;;;;;9.70;6.82;;;;;;;2.50;74.03;100902.03;5025405;28;20112;-63
2022/04/01 10:52:34;;;;;;;9.35;6.35;;;;;;;2.16;75.30;100924.00;5024915;28;19971;-63
2022/04/01 10:55:02;;;;;;;10.23;6.28;;;;;;;1.78;76.30;100922.91;5026601;28;20026;-64
2022/04/01 10:57:30;;;;;;;9.32;6.50;;;;;;;1.67;77.83;100934.06;5024487;28;20038;-63
2022/04/01 11:00:00;;;;;;;;;;;;;;;1.88;76.69;100931.69;5025575;28;20045;-63
2022/04/01 11:02:25;;;;;;;8.15;5.07;;;;;;;2.02;75.24;100932.84;5024279;28;20013;-63
2022/04/01 11:04:52;;;;;;;12.43;6.32;;;;;;;1.64;79.08;100937.16;5026236;28;20100;-63
2022/04/01 11:07:23;;;;;;;12.68;6.97;;;;;;;1.64;80.14;100945.28;5022409;28;20037;-63
2022/04/01 11:09:50;;;;;;;11.60;6.60;;;;;;;1.99;78.08;100936.75;5025737;28;20068;-63
2022/04/01 11:12:18;;;;;;;12.68;7.93;;;;;;;1.82;77.32;100948.63;5025488;28;20040;-63
2022/04/01 11:14:55;;;;;;;;;;;;;;;2.38;74.26;100937.81;5025790;28;20059;-63
2022/04/01 11:17:34;;;;;;;9.50;5.88;;;;;;;2.09;76.62;100941.97;5024713;28;19933;-63
2022/04/01 11:19:59;;;;;;;;;;;;;;;2.30;75.38;100950.38;5026139;28;20040;-63
2022/04/01 11:22:42;;;;;;;12.00;7.57;;;;;;;1.70;79.17;100952.69;5023921;28;19921;-63
2022/04/01 11:25:12;;;;;;;9.57;6.80;;;;;;;1.92;76.46;100957.41;5022536;28;20045;-63
2022/04/01 11:27:47;;;;;;;15.77;8.40;;;;;;;1.60;80.42;100966.41;5026119;28;20048;-63
2022/04/01 11:30:15;;;;;;;13.55;8.38;;;;;;;1.58;80.56;100965.75;5025825;28;20051;-63
2022/04/01 11:32:44;;;;;;;33.65;9.45;;;;;;;1.64;80.40;100959.66;5024628;28;20029;-64
2022/04/01 11:35:11;;;;;;;16.10;9.75;;;;;;;1.63;81.86;100957.13;5024329;28;20468;-64
2022/04/01 11:37:38;;;;;;;15.13;9.65;;;;;;;1.65;80.33;100965.91;5026001;28;20337;-63
2022/04/01 11:40:14;;;;;;;16.30;8.90;;;;;;;1.87;78.65;100965.19;5025781;28;20037;-63
2022/04/01 11:42:56;;;;;;;13.40;9.05;;;;;;;2.00;79.12;100965.53;5022459;28;20040;-64